WEATHER DATA

YESTERDAY
Time Temp. Dewp. Hum. Wind dir Wind speed Wind gust Bar. 1h Prec. 24h Prec.
00:17 6.6 2.5 75 0 0.8 1022.8 0.0000 0.0000
00:27 6.5 2.4 75 0 0.8 1022.8 0.0000 0.0000
00:37 6.5 2.6 76 0 0.8 1022.7 0.0000 0.0000
00:47 6.4 2.5 76 0 0.8 1022.7 0.0000 0.0000
00:57 6.3 2.4 76 0 0.3 1022.7 0.0000 0.0000
01:07 6.3 2.4 76 0 0.8 1022.8 0.0000 0.0000
01:18 6.2 2.3 76 0 0.8 1022.8 0.0000 0.0000
01:28 6 2.1 76 0 0.3 1022.8 0.0000 0.0000
01:38 5.9 2 76 0 0.3 1022.8 0.0000 0.0000
01:48 5.8 1.9 76 0 0.8 1022.8 0.0000 0.0000
01:56 5.7 2 77 0 0.8 1022.8 0.0000 0.0000
02:06 5.7 2 77 0 0.8 1022.8 0.0000 0.0000
02:17 5.7 2 77 0 0.8 1022.8 0.0000 0.0000
02:26 5.7 2 77 0 0.8 1022.8 0.0000 0.0000
02:36 5.7 2 77 0 0.8 1022.8 0.0000 0.0000
02:47 5.6 1.9 77 0 0.8 1022.7 0.0000 0.0000
02:57 5.6 2.1 78 0 0.3 1022.7 0.0000 0.0000
03:07 5.6 2.1 78 0 0.8 1022.7 0.0000 0.0000
03:17 5.5 2 78 0 0.8 1022.6 0.0000 0.0000
03:27 5.4 1.9 78 0 0.3 1022.6 0.0000 0.0000
03:37 5.4 2.1 79 0 0.8 1022.6 0.0000 0.0000
03:47 5.4 2.1 79 0 0.8 1022.4 0.0000 0.0000
03:57 5.4 2.1 79 0 0.8 1022.3 0.0000 0.0000
04:08 5.4 2.1 79 0 0.3 1022.3 0.0000 0.0000
04:18 5.3 2 79 270 0.3 0.8 1022.2 0.0000 0.0000
04:28 5.4 2.1 79 270 0.3 1.1 1022.1 0.0000 0.0000
04:38 5.3 2 79 270 0.3 1.1 1022.2 0.0000 0.0000
04:48 5.3 2 79 0 0.8 1022.2 0.0000 0.0000
04:58 5.2 1.9 79 270 0.3 0.8 1022.3 0.0000 0.0000
05:08 5.2 1.9 79 0 0.8 1022.3 0.0000 0.0000
05:19 5.1 1.8 79 0 0.3 1022.2 0.0000 0.0000
05:29 5.1 1.8 79 0 0.8 1022.3 0.0000 0.0000
05:39 5 1.5 78 0 0.3 1022.3 0.0000 0.0000
05:48 4.8 1.5 79 0 0.8 1022.4 0.0000 0.0000
05:59 4.8 1.5 79 0 0.3 1022.4 0.0000 0.0000
06:09 4.6 1.3 79 0 0.3 1022.3 0.0000 0.0000
06:19 4.5 1.2 79 0 0.3 1022.3 0.0000 0.0000
06:30 4.4 1.1 79 0 0.8 1022.2 0.0000 0.0000
06:40 4.3 1.2 80 0 0.3 1022.1 0.0000 0.0000
06:50 4.3 1.2 80 0 0.3 1022 0.0000 0.0000
06:59 4.2 1.1 80 0 0.3 1021.9 0.0000 0.0000
07:10 4.2 1.1 80 0 0.3 1021.9 0.0000 0.0000
07:20 4.1 1 80 0 0.3 1022 0.0000 0.0000
07:30 4.1 1 80 0 0.3 1022 0.0000 0.0000
07:40 4 0.9 80 0 0.3 1021.9 0.0000 0.0000
07:51 4 0.9 80 0 0.3 1021.9 0.0000 0.0000
08:01 3.9 0.8 80 0 0.8 1021.9 0.0000 0.0000
08:10 3.9 0.9 81 0 0.3 1021.8 0.0000 0.0000
08:21 4 1 81 0 0.8 1021.9 0.0000 0.0000
08:31 4.1 1.1 81 0 0.3 1021.9 0.0000 0.0000
08:41 4.2 1.4 82 0 0.8 1021.9 0.0000 0.0000
08:51 4.4 1.6 82 90 0.3 0.8 1021.9 0.0000 0.0000
09:02 4.7 1.9 82 125 0.3 1.1 1021.9 0.0000 0.0000
09:12 4.9 2.1 82 90 0.3 0.8 1022 0.0000 0.0000
09:21 5.2 2.2 81 90 0.3 0.8 1022.1 0.0000 0.0000
09:32 5.5 2.5 81 90 0.3 0.8 1022 0.0000 0.0000
09:42 5.9 2.9 81 167 0.3 1.1 1022 0.0000 0.0000
09:52 6.3 3.1 80 139 0.3 1.4 1022 0.0000 0.0000
10:02 6.6 3.2 79 135 0.3 1.4 1022 0.0000 0.0000
10:13 6.9 3.3 78 158 0.3 1.1 1022 0.0000 0.0000
10:22 7.1 3.3 77 174 0.8 1.4 1022 0.0000 0.0000
10:32 7.3 3.4 76 167 0.8 2.5 1021.9 0.0000 0.0000
10:42 7.6 3.5 75 168 0.8 1.7 1021.9 0.0000 0.0000
10:53 7.8 3.8 76 198 0.8 1.7 1021.9 0.0000 0.0000
11:03 8.1 3.8 74 208 0.8 1.7 1021.9 0.0000 0.0000
11:13 8.5 4.1 74 204 0.8 2.5 1021.8 0.0000 0.0000
11:23 8.7 4.3 74 182 0.3 1.4 1021.8 0.0000 0.0000
11:33 8.9 4.3 73 182 0.8 1.7 1021.7 0.0000 0.0000
11:43 9.1 4.5 73 187 0.8 2.2 1021.6 0.0000 0.0000
11:53 9.4 4.6 72 156 0.8 2.5 1021.7 0.0000 0.0000
12:04 9.6 4.8 72 160 0.8 2.5 1021.5 0.0000 0.0000
12:14 9.8 4.8 71 171 0.8 1.7 1021.5 0.0000 0.0000
12:24 10.1 5.1 71 151 0.8 3.1 1021.4 0.0000 0.0000
12:34 10.4 5.4 71 140 0.8 1.7 1021.3 0.0000 0.0000
12:44 10.7 5.5 70 150 1.1 2.2 1021.1 0.0000 0.0000
12:54 11 5.7 70 171 1.1 2.8 1021 0.0000 0.0000
13:04 11.3 5.8 69 174 0.8 2.5 1020.9 0.0000 0.0000
13:15 11.6 5.9 68 135 0.8 2.2 1020.8 0.0000 0.0000
13:25 11.9 6.2 68 152 0.8 2.2 1020.6 0.0000 0.0000
13:35 12.1 6.2 67 154 1.1 2.5 1020.4 0.0000 0.0000
13:45 12.4 6.5 67 149 0.8 2.2 1020.3 0.0000 0.0000
13:55 12.6 6.4 66 147 1.1 3.6 1020.1 0.0000 0.0000
14:05 12.8 6.6 66 149 0.8 2.2 1019.9 0.0000 0.0000
14:15 13 6.6 65 149 0.8 2.2 1019.7 0.0000 0.0000
14:25 13.1 6.7 65 146 0.8 2.8 1019.6 0.0000 0.0000
14:36 13.2 6.5 64 143 0.8 2.2 1019.4 0.0000 0.0000
14:46 13.4 6.7 64 191 0.8 2.2 1019.4 0.0000 0.0000
14:56 13.6 6.9 64 166 1.1 2.5 1019.3 0.0000 0.0000
15:06 13.8 6.9 63 176 0.8 2.5 1019.3 0.0000 0.0000
15:16 14 6.8 62 193 1.1 2.5 1019.4 0.0000 0.0000
15:26 14.2 7.3 63 140 0.8 2.2 1019.4 0.0000 0.0000
15:36 14.4 7.5 63 153 0.3 1.7 1019.4 0.0000 0.0000
15:47 14.7 7.5 62 127 0.8 1.7 1019.4 0.0000 0.0000
15:57 14.8 7.6 62 165 0.8 1.7 1019.4 0.0000 0.0000
16:07 14.9 7.7 62 151 0.8 2.2 1019.3 0.0000 0.0000
16:17 15 7.8 62 138 0.8 1.7 1019.2 0.0000 0.0000
16:27 15.1 7.9 62 135 0.8 1.7 1019.2 0.0000 0.0000
16:37 15.1 7.9 62 154 0.3 1.4 1019.1 0.0000 0.0000
16:47 15.1 7.4 60 217 0.8 1.7 1019 0.0000 0.0000
16:58 15.1 7.2 59 190 0.8 1.7 1019 0.0000 0.0000
17:08 15 7.1 59 180 0.3 1.7 1019 0.0000 0.0000
17:18 14.7 6.8 59 180 0.3 1.1 1019 0.0000 0.0000
17:27 14.5 6.8 60 145 0.3 1.1 1018.9 0.0000 0.0000
17:38 14.1 6.7 61 138 0.3 1.4 1019 0.0000 0.0000
17:48 13.8 6.7 62 135 0.3 1.4 1018.9 0.0000 0.0000
17:58 13.3 6.6 64 90 0.3 0.8 1019 0.0000 0.0000
18:08 12.9 6.5 65 143 0.3 1.1 1019 0.0000 0.0000
18:19 12.6 6.4 66 143 0.3 1.4 1019.2 0.0000 0.0000
18:29 12.3 6.1 66 149 0.3 1.1 1019.2 0.0000 0.0000
18:38 12 6.1 67 14 0.3 1.4 1019.5 0.0000 0.0000
18:49 11.5 6.8 73 11 0.8 1.7 1019.7 0.0000 0.0000
18:59 11.1 7 76 6 0.8 1.7 1019.7 0.0000 0.0000
19:09 10.8 7.1 78 23 0.3 0.8 1019.6 0.0000 0.0000
19:19 10.7 7 78 21 0.3 1.1 1019.7 0.0000 0.0000
19:30 10.5 7.2 80 18 0.3 0.8 1019.8 0.0000 0.0000
19:40 10.3 7 80 26 0.3 1.4 1019.8 0.0000 0.0000
19:49 10.3 7.2 81 0 0.8 1019.7 0.0000 0.0000
20:00 10.3 7 80 0 0.3 1019.8 0.0000 0.0000
20:20 10.2 6.9 80 0 0.8 1019.9 0.0000 0.0000
20:30 10.1 6.8 80 135 0.3 0.8 1019.8 0.0000 0.0000
20:41 10 6.7 80 0 0.3 1019.9 0.0000 0.0000
20:51 9.9 6.8 81 0 0.8 1019.9 0.0000 0.0000
21:00 9.8 6.9 82 315 0.3 1.1 1020.1 0.0000 0.0000
21:11 9.8 7.1 83 270 0.3 0.8 1020.3 0.0000 0.0000
21:21 9.8 7.1 83 225 0.3 1.1 1020.3 0.0000 0.0000
21:31 9.8 7.2 84 270 0.3 1.1 1020.4 0.0000 0.0000
21:41 9.8 7.2 84 278 1.1 2.8 1020.5 0.0000 0.0000
21:52 9.8 7.4 85 270 1.1 3.1 1020.5 0.0000 0.0000
22:02 9.7 7.3 85 288 1.1 2.8 1020.6 0.0000 0.0000
22:11 9.7 7.3 85 283 1.1 3.6 1020.8 0.0000 0.0000
22:21 9.6 7.2 85 287 1.1 3.1 1020.8 0.0000 0.0000
22:32 9.5 7.1 85 288 0.8 2.2 1020.8 0.0000 0.0000
22:42 9.4 7 85 291 1.1 2.5 1020.9 0.0000 0.0000
22:51 9.3 6.9 85 306 0.8 1.7 1021 0.0000 0.0000
23:02 9.2 6.8 85 286 0.8 2.2 1021.1 0.0000 0.0000
23:12 9.1 6.5 84 270 0.3 1.7 1021.2 0.0000 0.0000
23:22 9 6.6 85 282 0.8 1.4 1021.3 0.1010 0.1000
23:31 8.9 6.5 85 283 0.8 1.4 1021.3 0.2020 0.2000
23:42 8.8 6.2 84 240 0.3 1.1 1021.1 0.2020 0.2000
23:52 8.7 6.3 85 232 0.3 1.1 1021.1 0.2020 0.2000

DAY STATISTIC

2019-02-18
TEMPERATURE
AVERAGE
8.7
HIGH
15.1
16:27
LOW
3.9
08:01
PRESSURE
AVERAGE
1021.1
HIGH
1022.8
00:17
LOW
1018.9
17:27
DEWPOINT
AVERAGE
4.4
HIGH
7.9
16:27
LOW
0.8
08:01
HUMIDITY
AVERAGE
75
HIGH
85
21:52
LOW
59
16:58
WIND SPEED
AVERAGE
0.4
HIGH
1.1
12:44
WIND GUST
AVERAGE
1.3
HIGH
3.6
13:55
WIND DIRECTION
PREVAILING
SE
21.4%
N
3.6
NE
1.4
E
3.6
SE
21.4
S
15.7
SW
3.6
W
12.1
NW
1.4
PRECIPITATION
RAIN HOUR
0.2
RAIN DAY
0.2
TEMPERATURE (°C)
LOW
3.9
HIGH
15.1
AVERAGE
8.7
PRESSURE (hpa)
LOW
1018.9
HIGH
1022.8
AVERAGE
1021.1
DEVICE